createdAt,value
2016-10-09T00:00:35.709Z,0
2016-10-09T00:01:45.730Z,0
2016-10-09T00:02:55.776Z,0
2016-10-09T00:04:05.782Z,0
2016-10-09T00:05:16.129Z,0
2016-10-09T00:06:26.476Z,0
2016-10-09T00:07:36.503Z,0
2016-10-09T00:08:46.840Z,0
2016-10-09T00:09:56.856Z,0
2016-10-09T00:11:06.893Z,0
2016-10-09T00:12:17.215Z,0
2016-10-09T00:13:27.541Z,0
2016-10-09T00:14:37.882Z,0
2016-10-09T00:15:48.236Z,0
2016-10-09T00:16:57.927Z,0
2016-10-09T00:18:07.957Z,0
2016-10-09T00:19:17.998Z,0
2016-10-09T00:20:28.346Z,0
2016-10-09T00:21:38.709Z,0
2016-10-09T00:22:49.041Z,0
2016-10-09T00:23:59.380Z,0
2016-10-09T00:25:09.393Z,0
2016-10-09T00:26:19.428Z,0
2016-10-09T00:27:29.761Z,0
2016-10-09T00:28:40.090Z,0
2016-10-09T00:29:50.445Z,0
2016-10-09T00:31:00.441Z,0
2016-10-09T00:32:10.468Z,0
2016-10-09T00:33:20.795Z,0
2016-10-09T00:34:30.844Z,0
2016-10-09T00:35:40.819Z,0
2016-10-09T00:36:50.845Z,0
2016-10-09T00:38:01.166Z,0
2016-10-09T00:39:10.823Z,0
2016-10-09T00:40:20.852Z,0
2016-10-09T00:41:30.882Z,0
2016-10-09T00:42:40.929Z,0
2016-10-09T00:43:51.280Z,0
2016-10-09T00:45:01.246Z,0
2016-10-09T00:46:10.989Z,0
2016-10-09T00:47:21.034Z,0
2016-10-09T00:48:31.060Z,0
2016-10-09T00:49:41.085Z,0
2016-10-09T00:50:51.091Z,0
2016-10-09T00:52:01.412Z,0
2016-10-09T00:53:11.425Z,0
2016-10-09T00:54:21.447Z,0
2016-10-09T00:55:31.782Z,0
2016-10-09T00:56:42.114Z,0
2016-10-09T00:57:52.140Z,0
2016-10-09T00:59:02.166Z,0
2016-10-09T01:00:12.495Z,0
2016-10-09T01:01:22.511Z,0
2016-10-09T01:02:32.852Z,0
2016-10-09T01:03:42.883Z,0
2016-10-09T01:04:52.576Z,0
2016-10-09T01:06:02.907Z,0
2016-10-09T01:07:13.225Z,0
2016-10-09T01:08:23.562Z,0
2016-10-09T01:09:33.591Z,0
2016-10-09T01:10:43.910Z,0
2016-10-09T01:11:53.944Z,0
2016-10-09T01:13:03.972Z,0
2016-10-09T01:14:14.304Z,0
2016-10-09T01:15:24.632Z,0
2016-10-09T01:16:34.972Z,0
2016-10-09T01:17:45.304Z,0
2016-10-09T01:18:55.322Z,0
2016-10-09T01:20:05.343Z,0
2016-10-09T01:21:15.564Z,0
2016-10-09T01:22:25.576Z,0
2016-10-09T01:23:35.896Z,0
2016-10-09T01:24:46.221Z,0
2016-10-09T01:25:55.923Z,0
2016-10-09T01:27:05.637Z,0
2016-10-09T01:28:15.659Z,0
2016-10-09T01:29:25.691Z,0
2016-10-09T01:30:35.732Z,0
2016-10-09T01:31:46.064Z,0
2016-10-09T01:32:55.741Z,0
2016-10-09T01:34:06.086Z,0
2016-10-09T01:35:16.421Z,0
2016-10-09T01:36:26.122Z,0
2016-10-09T01:37:36.443Z,0
2016-10-09T01:38:46.781Z,0
2016-10-09T01:39:57.111Z,0
2016-10-09T01:41:07.449Z,0
2016-10-09T01:42:17.777Z,0
2016-10-09T01:43:27.486Z,0
2016-10-09T01:44:37.244Z,0
2016-10-09T01:45:47.564Z,0
2016-10-09T01:46:57.578Z,0
2016-10-09T01:48:07.903Z,0
2016-10-09T01:49:18.231Z,0
2016-10-09T01:50:28.551Z,0
2016-10-09T01:51:38.590Z,0
2016-10-09T01:52:48.587Z,0
2016-10-09T01:53:58.916Z,0
2016-10-09T01:55:08.929Z,0
2016-10-09T01:56:18.955Z,0
2016-10-09T01:57:29.272Z,0
2016-10-09T01:58:39.604Z,0
2016-10-09T01:59:49.936Z,0
2016-10-09T02:01:00.288Z,0
2016-10-09T02:02:09.984Z,0
2016-10-09T02:03:20.320Z,0
2016-10-09T02:04:30.655Z,0
2016-10-09T02:05:40.999Z,0
2016-10-09T02:06:50.678Z,0
2016-10-09T02:08:01.001Z,0
2016-10-09T02:09:11.319Z,0
2016-10-09T02:10:21.321Z,0
2016-10-09T02:11:31.330Z,0
2016-10-09T02:12:41.649Z,0
2016-10-09T02:13:51.972Z,0
2016-10-09T02:15:01.990Z,0
2016-10-09T02:16:12.319Z,0
2016-10-09T02:17:22.307Z,0
2016-10-09T02:18:32.318Z,0
2016-10-09T02:19:42.025Z,0
2016-10-09T02:20:52.362Z,0
2016-10-09T02:22:02.068Z,0
2016-10-09T02:23:12.139Z,0
2016-10-09T02:24:22.175Z,0
2016-10-09T02:25:32.184Z,0
2016-10-09T02:26:42.160Z,0
2016-10-09T02:27:52.490Z,0
2016-10-09T02:29:02.522Z,0
2016-10-09T02:30:12.568Z,0
2016-10-09T02:31:22.601Z,0
2016-10-09T02:32:32.923Z,0
2016-10-09T02:33:43.254Z,0
2016-10-09T02:34:53.590Z,0
2016-10-09T02:36:03.627Z,0
2016-10-09T02:37:13.954Z,0
2016-10-09T02:38:24.287Z,0
2016-10-09T02:39:34.293Z,0
2016-10-09T02:40:44.613Z,0
2016-10-09T02:41:54.330Z,0
2016-10-09T02:43:04.346Z,0
2016-10-09T02:44:14.661Z,0
2016-10-09T02:45:25.015Z,0
2016-10-09T02:46:35.337Z,0
2016-10-09T02:47:45.339Z,0
2016-10-09T02:48:55.665Z,0
2016-10-09T02:50:05.373Z,0
2016-10-09T02:51:15.703Z,0
2016-10-09T02:52:26.033Z,0
2016-10-09T02:53:36.042Z,0
2016-10-09T02:54:46.073Z,0
2016-10-09T02:55:56.088Z,0
2016-10-09T02:57:06.422Z,0
2016-10-09T02:58:16.986Z,0
2016-10-09T02:59:27.017Z,0
2016-10-09T03:00:37.347Z,0
2016-10-09T03:33:01.755Z,0
2016-10-09T03:34:11.742Z,0
2016-10-09T03:35:22.028Z,0
2016-10-09T03:36:32.315Z,0
2016-10-09T03:37:42.622Z,0
2016-10-09T03:38:52.274Z,0
2016-10-09T03:40:02.556Z,0
2016-10-09T03:41:12.552Z,0
2016-10-09T03:42:22.524Z,0
2016-10-09T03:43:32.815Z,0
2016-10-09T03:44:42.777Z,0
2016-10-09T03:45:52.465Z,0
2016-10-09T03:47:02.771Z,0
2016-10-09T03:48:13.063Z,0
2016-10-09T03:49:23.350Z,0
2016-10-09T03:50:33.626Z,0
2016-10-09T03:51:43.588Z,0
2016-10-09T03:52:53.869Z,0
2016-10-09T03:54:03.860Z,0
2016-10-09T03:55:13.539Z,0
2016-10-09T03:56:23.521Z,0
2016-10-09T03:57:33.812Z,0
2016-10-09T03:58:44.099Z,0
2016-10-09T03:59:53.770Z,0
2016-10-09T04:01:03.737Z,0
2016-10-09T04:02:13.714Z,0
2016-10-09T04:03:24.010Z,0
2016-10-09T04:04:34.296Z,0
2016-10-09T04:05:44.277Z,0
2016-10-09T04:06:54.261Z,0
2016-10-09T04:08:04.527Z,0
2016-10-09T04:09:14.805Z,0
2016-10-09T04:10:25.091Z,0
2016-10-09T04:11:35.077Z,0
2016-10-09T04:12:45.377Z,0
2016-10-09T04:13:55.347Z,0
2016-10-09T04:15:05.627Z,0
2016-10-09T04:16:15.605Z,0
2016-10-09T04:17:25.584Z,0
2016-10-09T04:18:35.552Z,0
2016-10-09T04:19:45.535Z,0
2016-10-09T04:20:55.820Z,0
2016-10-09T04:22:05.803Z,0
2016-10-09T04:23:16.084Z,0
2016-10-09T04:24:25.765Z,0
2016-10-09T04:25:36.057Z,0
2016-10-09T04:26:46.344Z,0
2016-10-09T04:27:56.627Z,0
2016-10-09T04:29:06.933Z,0
2016-10-09T04:30:17.231Z,0
2016-10-09T04:31:27.198Z,0
2016-10-09T04:32:37.482Z,0
2016-10-09T04:33:47.465Z,0
2016-10-09T04:34:57.753Z,0
2016-10-09T04:36:08.052Z,0
2016-10-09T04:37:18.347Z,0
2016-10-09T04:38:28.323Z,0
2016-10-09T04:39:38.623Z,0
2016-10-09T04:40:48.915Z,0
2016-10-09T04:41:58.901Z,0
2016-10-09T04:43:09.194Z,0
2016-10-09T04:44:19.494Z,0
2016-10-09T04:45:29.778Z,0
2016-10-09T04:46:40.058Z,0
2016-10-09T04:47:50.048Z,0
2016-10-09T04:49:00.323Z,0
2016-10-09T04:50:10.599Z,0
2016-10-09T04:51:20.590Z,0
2016-10-09T04:52:30.888Z,0
2016-10-09T04:53:41.165Z,0
2016-10-09T04:54:51.457Z,0
2016-10-09T04:56:01.747Z,0
2016-10-09T04:57:12.049Z,0
2016-10-09T04:58:22.340Z,0
2016-10-09T04:59:32.618Z,0
2016-10-09T05:00:42.591Z,0
2016-10-09T05:01:52.886Z,0
2016-10-09T05:03:03.207Z,0
2016-10-09T05:04:13.480Z,0
2016-10-09T05:05:23.490Z,0
2016-10-09T05:06:33.802Z,0
2016-10-09T05:07:44.099Z,0
2016-10-09T05:08:54.390Z,0
2016-10-09T05:10:04.372Z,0
2016-10-09T05:11:14.659Z,5
2016-10-09T05:12:24.951Z,5
2016-10-09T05:13:35.228Z,5
2016-10-09T05:14:45.212Z,5
2016-10-09T05:15:55.501Z,5
2016-10-09T05:17:06.037Z,5
2016-10-09T05:18:16.016Z,5
2016-10-09T05:19:25.691Z,5
2016-10-09T05:20:35.993Z,5
2016-10-09T05:21:45.992Z,10
2016-10-09T05:22:56.283Z,10
2016-10-09T05:24:06.572Z,10
2016-10-09T05:25:16.880Z,10
2016-10-09T05:26:27.173Z,10
2016-10-09T05:27:36.839Z,10
2016-10-09T05:28:47.168Z,15
2016-10-09T05:29:56.847Z,15
2016-10-09T05:31:06.838Z,15
2016-10-09T05:32:17.116Z,20
2016-10-09T05:33:27.087Z,20
2016-10-09T05:34:37.070Z,20
2016-10-09T05:35:47.365Z,20
2016-10-09T05:36:57.347Z,20
2016-10-09T05:38:07.619Z,20
2016-10-09T05:39:17.960Z,20
2016-10-09T05:40:28.246Z,20
2016-10-09T05:41:38.219Z,25
2016-10-09T05:42:48.496Z,30
2016-10-09T05:43:58.483Z,30
2016-10-09T05:45:08.788Z,30
2016-10-09T05:46:19.075Z,35
2016-10-09T05:47:29.058Z,40
2016-10-09T05:48:39.030Z,40
2016-10-09T05:49:49.021Z,40
2016-10-09T05:50:59.297Z,45
2016-10-09T05:52:09.595Z,50
2016-10-09T05:53:19.885Z,50
2016-10-09T05:54:30.178Z,55
2016-10-09T05:55:40.488Z,55
2016-10-09T05:56:50.784Z,60
2016-10-09T05:58:00.765Z,60
2016-10-09T05:59:10.753Z,65
2016-10-09T06:00:21.051Z,65
2016-10-09T06:01:31.024Z,65
2016-10-09T06:02:40.996Z,70
2016-10-09T06:03:51.272Z,75
2016-10-09T06:05:01.603Z,80
2016-10-09T06:06:11.614Z,85
2016-10-09T06:07:21.912Z,85
2016-10-09T06:08:31.884Z,90
2016-10-09T06:09:41.863Z,90
2016-10-09T06:10:52.163Z,90
2016-10-09T06:12:01.823Z,95
2016-10-09T06:13:12.115Z,85
2016-10-09T06:14:22.393Z,80
2016-10-09T06:15:32.377Z,75
2016-10-09T06:16:42.361Z,65
2016-10-09T06:17:52.670Z,55
2016-10-09T06:19:02.939Z,50
2016-10-09T06:20:13.231Z,55
2016-10-09T06:21:23.746Z,55
2016-10-09T06:22:33.728Z,55
2016-10-09T06:23:44.021Z,55
2016-10-09T06:24:54.019Z,50
2016-10-09T06:26:04.309Z,50
2016-10-09T06:27:14.596Z,55
2016-10-09T06:28:24.567Z,60
2016-10-09T06:29:34.853Z,60
2016-10-09T06:30:45.146Z,60
2016-10-09T06:31:54.506Z,60
2016-10-09T06:33:04.799Z,65
2016-10-09T06:34:15.074Z,65
2016-10-09T06:35:24.737Z,65
2016-10-09T06:36:34.693Z,65
2016-10-09T06:37:44.691Z,65
2016-10-09T06:38:54.971Z,65
2016-10-09T06:40:05.258Z,65
2016-10-09T06:41:14.926Z,60
2016-10-09T06:42:25.212Z,60
2016-10-09T06:43:35.218Z,60
2016-10-09T06:44:44.890Z,60
2016-10-09T06:45:55.191Z,60
2016-10-09T06:47:05.475Z,60
2016-10-09T06:48:15.460Z,65
2016-10-09T06:49:25.771Z,65
2016-10-09T06:50:35.443Z,70
2016-10-09T06:51:45.428Z,75
2016-10-09T06:52:55.721Z,75
2016-10-09T06:54:06.029Z,80
2016-10-09T06:55:16.313Z,80
2016-10-09T06:56:26.306Z,80
2016-10-09T06:57:36.598Z,85
2016-10-09T06:58:46.880Z,85
2016-10-09T06:59:56.882Z,85
2016-10-09T07:01:07.178Z,85
2016-10-09T07:02:17.471Z,80
2016-10-09T07:03:27.767Z,80
2016-10-09T07:04:38.058Z,80
2016-10-09T07:05:47.744Z,80
2016-10-09T07:06:57.407Z,80
2016-10-09T07:08:07.396Z,85
2016-10-09T07:09:16.460Z,85
2016-10-09T07:10:26.124Z,95
2016-10-09T07:11:36.424Z,100
2016-10-09T07:12:46.714Z,105
2016-10-09T07:13:57.011Z,110
2016-10-09T07:15:07.015Z,115
2016-10-09T07:16:16.710Z,120
2016-10-09T07:17:26.692Z,120
2016-10-09T07:18:36.968Z,120
2016-10-09T07:19:47.261Z,125
2016-10-09T07:20:57.552Z,125
2016-10-09T07:22:07.848Z,130
2016-10-09T07:23:17.821Z,135
2016-10-09T07:24:27.804Z,135
2016-10-09T07:25:38.089Z,135
2016-10-09T07:26:48.086Z,130
2016-10-09T07:27:58.063Z,125
2016-10-09T07:29:08.039Z,115
2016-10-09T07:30:18.039Z,110
2016-10-09T07:31:28.321Z,105
2016-10-09T07:32:38.623Z,100
2016-10-09T07:33:48.603Z,100
2016-10-09T07:34:58.941Z,95
2016-10-09T07:36:08.934Z,95
2016-10-09T07:37:19.246Z,90
2016-10-09T07:38:29.236Z,95
2016-10-09T07:39:39.219Z,85
2016-10-09T07:40:49.521Z,85
2016-10-09T07:41:59.809Z,85
2016-10-09T07:43:10.108Z,85
2016-10-09T07:44:20.392Z,85
2016-10-09T07:45:30.677Z,85
2016-10-09T07:46:40.395Z,85
2016-10-09T07:47:50.369Z,85
2016-10-09T07:49:00.667Z,85
2016-10-09T07:50:10.970Z,85
2016-10-09T07:51:21.251Z,80
2016-10-09T07:52:31.232Z,80
2016-10-09T07:53:41.554Z,75
2016-10-09T07:54:51.851Z,75
2016-10-09T07:56:01.854Z,75
2016-10-09T07:57:12.138Z,80
2016-10-09T07:58:22.451Z,80
2016-10-09T07:59:32.760Z,85
2016-10-09T08:00:42.790Z,90
2016-10-09T08:01:53.097Z,100
2016-10-09T08:03:02.780Z,105
2016-10-09T08:04:12.469Z,110
2016-10-09T08:05:22.442Z,120
2016-10-09T08:06:32.728Z,130
2016-10-09T08:07:43.014Z,140
2016-10-09T08:08:52.701Z,160
2016-10-09T08:10:03.013Z,180
2016-10-09T08:11:13.005Z,195
2016-10-09T08:12:22.986Z,205
2016-10-09T08:13:33.297Z,230
2016-10-09T08:14:43.610Z,220
2016-10-09T08:15:53.606Z,225
2016-10-09T08:17:03.937Z,225
2016-10-09T08:18:14.220Z,245
2016-10-09T08:19:23.894Z,285
2016-10-09T08:20:34.187Z,245
2016-10-09T08:21:44.481Z,260
2016-10-09T08:22:54.476Z,220
2016-10-09T08:24:04.463Z,210
2016-10-09T08:25:14.756Z,195
2016-10-09T08:26:24.732Z,195
2016-10-09T08:27:34.717Z,200
2016-10-09T08:28:45.027Z,200
2016-10-09T08:29:55.026Z,205
2016-10-09T08:31:04.705Z,195
2016-10-09T08:32:14.696Z,190
2016-10-09T08:33:24.997Z,185
2016-10-09T08:34:35.009Z,190
2016-10-09T08:35:44.999Z,195
2016-10-09T08:36:54.377Z,195
2016-10-09T08:38:04.667Z,195
2016-10-09T08:39:14.654Z,195
2016-10-09T08:40:24.951Z,195
2016-10-09T08:41:35.250Z,195
2016-10-09T08:42:45.239Z,200
2016-10-09T08:43:55.243Z,200
2016-10-09T08:45:05.578Z,205
2016-10-09T08:46:15.861Z,210
2016-10-09T08:47:26.150Z,215
2016-10-09T08:48:35.830Z,225
2016-10-09T08:49:46.160Z,235
2016-10-09T08:50:56.161Z,245
2016-10-09T08:52:06.159Z,250
2016-10-09T08:53:16.179Z,260
2016-10-09T08:54:26.476Z,235
2016-10-09T08:55:36.778Z,260
2016-10-09T08:56:47.011Z,225
2016-10-09T08:57:57.306Z,210
2016-10-09T08:59:07.653Z,210
2016-10-09T09:00:17.651Z,200
2016-10-09T09:01:27.961Z,200
2016-10-09T09:02:38.249Z,200
2016-10-09T09:03:48.560Z,200
2016-10-09T09:04:58.845Z,205
2016-10-09T09:06:09.153Z,210
2016-10-09T09:07:19.449Z,235
2016-10-09T09:08:29.450Z,220
2016-10-09T09:09:39.433Z,210
2016-10-09T09:10:49.740Z,215
2016-10-09T09:12:00.042Z,220
2016-10-09T09:13:10.329Z,220
2016-10-09T09:14:20.651Z,220
2016-10-09T09:15:30.642Z,220
2016-10-09T09:16:40.328Z,225
2016-10-09T09:17:50.330Z,230
2016-10-09T09:19:00.333Z,265
2016-10-09T09:20:10.329Z,295
2016-10-09T09:21:20.625Z,245
2016-10-09T09:22:30.306Z,230
2016-10-09T09:23:40.614Z,235
2016-10-09T09:24:50.284Z,240
2016-10-09T09:26:00.278Z,245
2016-10-09T09:27:10.583Z,260
2016-10-09T09:28:20.892Z,260
2016-10-09T09:29:30.912Z,265
2016-10-09T09:30:41.213Z,270
2016-10-09T09:31:51.506Z,270
2016-10-09T09:33:01.489Z,305
2016-10-09T09:34:11.794Z,305
2016-10-09T09:35:22.111Z,290
2016-10-09T09:36:32.106Z,365
2016-10-09T09:37:42.406Z,295
2016-10-09T09:38:52.707Z,320
2016-10-09T09:40:03.012Z,260
2016-10-09T09:41:12.693Z,260
2016-10-09T09:42:22.986Z,245
2016-10-09T09:43:33.288Z,240
2016-10-09T09:44:43.305Z,235
2016-10-09T09:45:52.985Z,230
2016-10-09T09:47:02.975Z,225
2016-10-09T09:48:12.975Z,225
2016-10-09T09:49:22.965Z,215
2016-10-09T09:50:33.262Z,210
2016-10-09T09:51:42.959Z,210
2016-10-09T09:52:52.641Z,210
2016-10-09T09:54:02.945Z,210
2016-10-09T09:55:13.261Z,210
2016-10-09T09:56:23.266Z,210
2016-10-09T09:57:32.639Z,215
2016-10-09T09:58:42.944Z,220
2016-10-09T09:59:52.940Z,225
2016-10-09T10:01:02.938Z,225
2016-10-09T10:02:12.910Z,230
2016-10-09T10:03:22.606Z,230
2016-10-09T10:04:32.903Z,230
2016-10-09T10:05:42.884Z,235
2016-10-09T10:06:52.882Z,225
2016-10-09T10:08:03.162Z,220
2016-10-09T10:09:13.459Z,215
2016-10-09T10:10:23.773Z,210
2016-10-09T10:11:34.073Z,210
2016-10-09T10:12:44.368Z,205
2016-10-09T10:13:54.343Z,200
2016-10-09T10:15:04.022Z,195
2016-10-09T10:16:14.039Z,190
2016-10-09T10:17:24.358Z,180
2016-10-09T10:18:34.656Z,175
2016-10-09T10:19:44.959Z,170
2016-10-09T10:20:54.658Z,160
2016-10-09T10:22:04.653Z,160
2016-10-09T10:23:14.626Z,155
2016-10-09T10:24:24.612Z,155
2016-10-09T10:25:34.599Z,155
2016-10-09T10:26:44.579Z,160
2016-10-09T10:27:54.898Z,155
2016-10-09T10:29:05.199Z,160
2016-10-09T10:30:15.195Z,165
2016-10-09T10:31:25.504Z,165
2016-10-09T10:32:35.520Z,170
2016-10-09T10:33:45.213Z,170
2016-10-09T10:34:55.519Z,175
2016-10-09T10:36:05.193Z,170
2016-10-09T10:37:15.485Z,170
2016-10-09T10:38:25.474Z,165
2016-10-09T10:39:35.463Z,160
2016-10-09T10:40:45.740Z,155
2016-10-09T10:41:55.717Z,150
2016-10-09T10:43:06.008Z,145
2016-10-09T10:44:16.307Z,140
2016-10-09T10:45:26.310Z,135
2016-10-09T10:46:36.609Z,130
2016-10-09T10:47:46.304Z,130
2016-10-09T10:48:56.308Z,135
2016-10-09T10:50:06.304Z,135
2016-10-09T10:51:16.293Z,135
2016-10-09T10:52:26.313Z,125
2016-10-09T10:53:36.312Z,120
2016-10-09T10:54:46.594Z,120
2016-10-09T10:55:56.582Z,115
2016-10-09T10:57:06.581Z,110
2016-10-09T10:58:16.870Z,110
2016-10-09T10:59:27.165Z,105
2016-10-09T11:00:37.165Z,105
2016-10-09T11:01:46.861Z,105
2016-10-09T11:02:56.878Z,115
2016-10-09T11:04:06.885Z,110
2016-10-09T11:05:17.181Z,120
2016-10-09T11:06:27.478Z,125
2016-10-09T11:07:37.785Z,140
2016-10-09T11:08:48.062Z,145
2016-10-09T11:09:58.037Z,150
2016-10-09T11:11:08.350Z,155
2016-10-09T11:12:18.036Z,155
2016-10-09T11:13:28.327Z,155
2016-10-09T11:14:38.319Z,155
2016-10-09T11:15:48.306Z,155
2016-10-09T11:16:58.608Z,155
2016-10-09T11:18:08.908Z,160
2016-10-09T11:19:19.192Z,155
2016-10-09T11:20:28.893Z,155
2016-10-09T11:21:38.586Z,155
2016-10-09T11:22:48.588Z,155
2016-10-09T11:23:58.570Z,155
2016-10-09T11:25:07.940Z,160
2016-10-09T11:26:18.244Z,170
2016-10-09T11:27:28.234Z,175
2016-10-09T11:28:37.906Z,180
2016-10-09T11:29:48.205Z,185
2016-10-09T11:30:58.516Z,205
2016-10-09T11:32:08.826Z,175
2016-10-09T11:33:19.133Z,160
2016-10-09T11:34:29.123Z,155
2016-10-09T11:35:39.102Z,150
2016-10-09T11:36:49.101Z,150
2016-10-09T11:37:59.402Z,150
2016-10-09T11:39:09.704Z,155
2016-10-09T11:40:19.113Z,155
2016-10-09T11:41:28.794Z,155
2016-10-09T11:42:38.475Z,160
2016-10-09T11:43:48.485Z,160
2016-10-09T11:44:57.872Z,235
2016-10-09T11:46:07.565Z,270
2016-10-09T11:47:17.860Z,285
2016-10-09T11:48:27.551Z,315
2016-10-09T11:49:37.533Z,310
2016-10-09T11:50:47.825Z,310
2016-10-09T11:51:57.817Z,310
2016-10-09T11:53:07.817Z,310
2016-10-09T11:54:17.800Z,310
2016-10-09T11:55:27.794Z,320
2016-10-09T11:56:38.087Z,325
2016-10-09T11:57:48.074Z,335
2016-10-09T11:58:57.745Z,340
2016-10-09T12:00:07.725Z,330
2016-10-09T12:01:18.033Z,325
2016-10-09T12:02:28.326Z,325
2016-10-09T12:03:38.329Z,320
2016-10-09T12:04:48.672Z,315
2016-10-09T12:05:58.655Z,275
2016-10-09T12:07:08.957Z,305
2016-10-09T12:08:19.247Z,155
2016-10-09T12:09:29.251Z,150
2016-10-09T12:10:39.550Z,140
2016-10-09T12:11:49.860Z,130
2016-10-09T12:13:00.173Z,140
2016-10-09T12:14:10.468Z,135
2016-10-09T12:15:20.763Z,135
2016-10-09T12:16:31.065Z,145
2016-10-09T12:17:41.376Z,150
2016-10-09T12:18:51.684Z,140
2016-10-09T12:20:01.961Z,130
2016-10-09T12:21:12.262Z,125
2016-10-09T12:22:22.256Z,120
2016-10-09T12:23:32.544Z,115
2016-10-09T12:24:42.846Z,115
2016-10-09T12:25:53.143Z,115
2016-10-09T12:27:02.837Z,110
2016-10-09T12:28:13.132Z,110
2016-10-09T12:29:23.434Z,110
2016-10-09T12:30:33.407Z,110
2016-10-09T12:31:43.097Z,110
2016-10-09T12:32:53.074Z,110
2016-10-09T12:34:03.415Z,110
2016-10-09T12:35:13.095Z,105
2016-10-09T12:36:23.078Z,110
2016-10-09T12:37:33.360Z,110
2016-10-09T12:38:43.345Z,110
2016-10-09T12:39:53.326Z,110
2016-10-09T12:41:03.016Z,115
2016-10-09T12:42:13.295Z,115
2016-10-09T12:43:23.591Z,115
2016-10-09T12:44:33.891Z,115
2016-10-09T12:45:44.183Z,110
2016-10-09T12:46:54.485Z,115
2016-10-09T12:48:04.698Z,110
2016-10-09T12:49:14.700Z,110
2016-10-09T12:50:24.680Z,110
2016-10-09T12:51:34.658Z,110
2016-10-09T12:52:44.664Z,110
2016-10-09T12:53:54.950Z,115
2016-10-09T12:55:05.238Z,115
2016-10-09T12:56:15.544Z,115
2016-10-09T12:57:25.546Z,115
2016-10-09T12:58:35.538Z,110
2016-10-09T12:59:45.526Z,105
2016-10-09T13:00:55.822Z,105
2016-10-09T13:02:06.108Z,105
2016-10-09T13:03:16.112Z,105
2016-10-09T13:04:26.408Z,110
2016-10-09T13:05:36.383Z,110
2016-10-09T13:06:46.674Z,115
2016-10-09T13:07:56.981Z,115
2016-10-09T13:09:06.973Z,115
2016-10-09T13:10:16.959Z,115
2016-10-09T13:11:26.961Z,115
2016-10-09T13:12:37.273Z,115
2016-10-09T13:13:47.550Z,115
2016-10-09T13:14:57.877Z,115
2016-10-09T13:16:08.200Z,115
2016-10-09T13:17:18.549Z,115
2016-10-09T13:18:28.562Z,115
2016-10-09T13:19:38.884Z,110
2016-10-09T13:20:49.207Z,110
2016-10-09T13:21:59.507Z,110
2016-10-09T13:23:09.516Z,110
2016-10-09T13:24:19.812Z,110
2016-10-09T13:25:29.819Z,110
2016-10-09T13:26:39.500Z,110
2016-10-09T13:27:49.501Z,115
2016-10-09T13:28:59.809Z,115
2016-10-09T13:30:09.812Z,110
2016-10-09T13:31:20.117Z,110
2016-10-09T13:32:30.095Z,105
2016-10-09T13:33:40.118Z,105
2016-10-09T13:34:50.113Z,105
2016-10-09T13:36:00.118Z,110
2016-10-09T13:37:10.133Z,115
2016-10-09T13:38:20.153Z,105
2016-10-09T13:39:29.834Z,105
2016-10-09T13:40:39.522Z,105
2016-10-09T13:41:49.813Z,100
2016-10-09T13:42:59.814Z,100
2016-10-09T13:44:09.811Z,100
2016-10-09T13:45:20.122Z,100
2016-10-09T13:46:30.106Z,105
2016-10-09T13:47:40.392Z,105
2016-10-09T13:48:50.706Z,110
2016-10-09T13:50:00.377Z,115
2016-10-09T13:51:10.931Z,120
2016-10-09T13:52:20.945Z,120
2016-10-09T13:53:30.956Z,210
2016-10-09T13:54:40.647Z,220
2016-10-09T13:55:50.940Z,215
2016-10-09T13:57:00.930Z,215
2016-10-09T13:58:10.612Z,215
2016-10-09T13:59:21.072Z,120
2016-10-09T14:00:30.752Z,125
2016-10-09T14:01:40.752Z,210
2016-10-09T14:02:50.771Z,185
2016-10-09T14:04:01.091Z,200
2016-10-09T14:05:10.489Z,195
2016-10-09T14:06:20.515Z,155
2016-10-09T14:07:30.505Z,125
2016-10-09T14:08:40.821Z,115
2016-10-09T14:09:51.130Z,110
2016-10-09T14:11:01.112Z,110
2016-10-09T14:12:11.407Z,110
2016-10-09T14:13:21.710Z,110
2016-10-09T14:14:32.002Z,110
2016-10-09T14:15:41.682Z,105
2016-10-09T14:16:51.373Z,105
2016-10-09T14:18:01.364Z,110
2016-10-09T14:19:11.662Z,110
2016-10-09T14:20:21.648Z,110
2016-10-09T14:21:31.680Z,115
2016-10-09T14:22:42.001Z,120
2016-10-09T14:23:52.321Z,135
2016-10-09T14:25:02.632Z,190
2016-10-09T14:26:12.929Z,135
2016-10-09T14:27:23.220Z,135
2016-10-09T14:28:33.238Z,135
2016-10-09T14:29:43.523Z,135
2016-10-09T14:30:53.817Z,135
2016-10-09T14:32:04.112Z,140
2016-10-09T14:33:13.784Z,140
2016-10-09T14:34:23.783Z,135
2016-10-09T14:35:34.068Z,125
2016-10-09T14:36:44.065Z,115
2016-10-09T14:37:54.393Z,105
2016-10-09T14:39:04.692Z,90
2016-10-09T14:40:14.665Z,80
2016-10-09T14:41:24.681Z,75
2016-10-09T14:42:34.983Z,75
2016-10-09T14:43:45.309Z,80
2016-10-09T14:44:55.630Z,90
2016-10-09T14:46:05.937Z,130
2016-10-09T14:47:15.927Z,140
2016-10-09T14:48:26.238Z,130
2016-10-09T14:49:36.573Z,110
2016-10-09T14:50:46.893Z,125
2016-10-09T14:51:57.192Z,145
2016-10-09T14:53:07.186Z,150
2016-10-09T14:54:17.500Z,130
2016-10-09T14:55:27.169Z,150
2016-10-09T14:56:37.189Z,160
2016-10-09T14:57:47.512Z,155
2016-10-09T14:58:57.241Z,160
2016-10-09T15:00:07.543Z,150
2016-10-09T15:01:17.540Z,145
2016-10-09T15:02:27.852Z,140
2016-10-09T15:03:37.850Z,110
2016-10-09T15:04:47.832Z,130
2016-10-09T15:05:57.863Z,125
2016-10-09T15:07:07.842Z,115
2016-10-09T15:08:17.835Z,115
2016-10-09T15:09:28.129Z,110
2016-10-09T15:10:38.156Z,105
2016-10-09T15:11:48.452Z,105
2016-10-09T15:12:58.142Z,95
2016-10-09T15:14:08.461Z,75
2016-10-09T15:15:18.767Z,80
2016-10-09T15:16:29.056Z,95
2016-10-09T15:17:39.047Z,90
2016-10-09T15:18:49.333Z,85
2016-10-09T15:19:59.338Z,85
2016-10-09T15:21:09.656Z,80
2016-10-09T15:22:19.664Z,75
2016-10-09T15:23:29.967Z,75
2016-10-09T15:24:40.262Z,75
2016-10-09T15:25:50.562Z,70
2016-10-09T15:27:00.258Z,65
2016-10-09T15:28:10.557Z,60
2016-10-09T15:29:20.956Z,55
2016-10-09T15:30:31.244Z,60
2016-10-09T15:31:40.925Z,50
2016-10-09T15:32:50.924Z,50
2016-10-09T15:34:00.607Z,45
2016-10-09T15:35:10.901Z,45
2016-10-09T15:36:21.189Z,45
2016-10-09T15:37:31.472Z,40
2016-10-09T15:38:41.791Z,40
2016-10-09T15:39:51.783Z,40
2016-10-09T15:41:01.779Z,40
2016-10-09T15:42:11.458Z,40
2016-10-09T15:43:21.780Z,35
2016-10-09T15:44:31.490Z,35
2016-10-09T15:45:41.800Z,35
2016-10-09T15:46:52.108Z,30
2016-10-09T15:48:01.769Z,30
2016-10-09T15:49:12.090Z,30
2016-10-09T15:50:22.388Z,30
2016-10-09T15:51:32.716Z,30
2016-10-09T15:52:43.062Z,30
2016-10-09T15:53:52.426Z,25
2016-10-09T15:55:02.415Z,25
2016-10-09T15:56:12.727Z,20
2016-10-09T15:57:22.734Z,20
2016-10-09T15:58:33.056Z,20
2016-10-09T15:59:43.365Z,15
2016-10-09T16:00:53.692Z,15
2016-10-09T16:02:03.677Z,10
2016-10-09T16:03:13.677Z,10
2016-10-09T16:04:23.664Z,10
2016-10-09T16:05:33.664Z,10
2016-10-09T16:06:43.376Z,10
2016-10-09T16:07:53.696Z,5
2016-10-09T16:09:03.680Z,5
2016-10-09T16:10:13.678Z,5
2016-10-09T16:11:23.986Z,5
2016-10-09T16:12:34.296Z,5
2016-10-09T16:13:44.594Z,5
2016-10-09T16:14:54.890Z,5
2016-10-09T16:16:05.200Z,0
2016-10-09T16:17:15.540Z,0
2016-10-09T16:18:25.575Z,0
2016-10-09T16:19:35.559Z,0
2016-10-09T16:20:45.888Z,0
2016-10-09T16:21:56.210Z,0
2016-10-09T16:23:06.219Z,0
2016-10-09T16:24:16.233Z,0
2016-10-09T16:25:26.229Z,0
2016-10-09T16:26:36.223Z,0
2016-10-09T16:27:46.517Z,0
2016-10-09T16:28:56.510Z,0
2016-10-09T16:30:06.536Z,0
2016-10-09T16:31:16.827Z,0
2016-10-09T16:32:27.190Z,0
2016-10-09T16:33:37.182Z,0
2016-10-09T16:34:47.170Z,0
2016-10-09T16:35:57.163Z,0
2016-10-09T16:37:07.479Z,0
2016-10-09T16:38:17.817Z,0
2016-10-09T16:39:27.802Z,0
2016-10-09T16:40:38.132Z,0
2016-10-09T16:41:48.140Z,0
2016-10-09T16:42:58.480Z,0
2016-10-09T16:44:08.797Z,0
2016-10-09T16:45:19.090Z,0
2016-10-09T16:46:29.403Z,0
2016-10-09T16:47:39.721Z,0
2016-10-09T16:48:49.727Z,0
2016-10-09T16:50:00.035Z,0
2016-10-09T16:51:10.068Z,0
2016-10-09T16:52:20.395Z,0
2016-10-09T16:53:30.382Z,0
2016-10-09T16:54:40.676Z,0
2016-10-09T16:55:50.664Z,0
2016-10-09T16:57:00.967Z,0
2016-10-09T16:58:10.967Z,0
2016-10-09T16:59:21.289Z,0
2016-10-09T17:00:31.330Z,0
2016-10-09T17:01:41.018Z,0
2016-10-09T17:02:50.709Z,0
2016-10-09T17:04:00.746Z,0
2016-10-09T17:05:11.096Z,0
2016-10-09T17:06:20.787Z,0
2016-10-09T17:07:31.146Z,0